Terminal Aerodrome Forecast
Issued by NWS Pueblo, CO

Home | Current Version | Previous Version | Text Only | Print | Product List | Glossary On
Versions: 1 2 3 4 5 6 7 8 9 10 11 12 13 14 15 16 17 18 19 20 21 22 23 24 25 26 27 28 29 30 31
000
FTUS45 KPUB 301736
TAFCOS
TAF
KCOS 301736Z 3018/0118 19009KT P6SM FEW070 SCT100 SCT200
     FM301900 15010KT P6SM FEW070 SCT080 SCT200
     FM010400 35010KT P6SM VCTS SCT080CB BKN150
     FM010900 35012KT P6SM FEW070 SCT080 BKN140=

USA.gov is the U.S. government's official web portal to all federal, state and local government web resources and services.